createdAt,value
2022-08-22T00:08:30.328Z,11.50
2022-08-22T00:14:01.107Z,5.35
2022-08-22T00:19:29.482Z,10.15
2022-08-22T00:24:46.073Z,8.32
2022-08-22T00:29:52.931Z,11.83
2022-08-22T00:35:21.567Z,7.47
2022-08-22T00:40:35.845Z,8.52
2022-08-22T00:46:02.410Z,9.35
2022-08-22T00:51:18.992Z,7.22
2022-08-22T00:56:50.820Z,13.97
2022-08-22T01:01:55.331Z,14.43
2022-08-22T01:07:38.278Z,10.00
2022-08-22T01:13:13.659Z,13.82
2022-08-22T01:18:24.615Z,13.48
2022-08-22T01:23:44.196Z,9.82
2022-08-22T01:29:28.512Z,8.20
2022-08-22T01:35:02.956Z,13.98
2022-08-22T01:40:32.963Z,14.55
2022-08-22T01:45:40.272Z,8.05
2022-08-22T01:50:53.655Z,15.18
2022-08-22T01:56:06.521Z,13.85
2022-08-22T02:01:11.242Z,12.95
2022-08-22T02:06:17.598Z,18.42
2022-08-22T02:11:43.680Z,14.32
2022-08-22T02:16:50.644Z,11.25
2022-08-22T02:22:02.135Z,6.88
2022-08-22T02:27:33.696Z,12.70
2022-08-22T02:32:41.135Z,15.18
2022-08-22T02:38:18.617Z,15.15
2022-08-22T02:43:44.277Z,10.25
2022-08-22T02:49:02.490Z,15.27
2022-08-22T02:54:14.275Z,14.55
2022-08-22T03:00:32.737Z,9.27
2022-08-22T03:10:45.535Z,14.48
2022-08-22T03:15:56.436Z,9.07
2022-08-22T03:21:14.614Z,13.48
2022-08-22T03:26:29.395Z,17.48
2022-08-22T03:31:32.650Z,15.95
2022-08-22T03:36:35.009Z,11.93
2022-08-22T03:42:13.936Z,19.92
2022-08-22T03:48:00.873Z,8.00
2022-08-22T03:53:23.982Z,12.15
2022-08-22T03:58:47.303Z,11.15
2022-08-22T04:04:02.519Z,8.15
2022-08-22T04:09:23.813Z,15.20
2022-08-22T04:14:47.564Z,15.38
2022-08-22T04:20:16.599Z,9.38
2022-08-22T04:25:23.392Z,17.88
2022-08-22T04:30:34.382Z,12.90
2022-08-22T04:35:41.710Z,12.05
2022-08-22T04:41:04.684Z,10.45
2022-08-22T04:46:16.062Z,10.48
2022-08-22T04:51:32.129Z,11.82
2022-08-22T04:57:22.407Z,24.05
2022-08-22T05:02:27.850Z,28.38
2022-08-22T05:07:53.606Z,12.40
2022-08-22T05:13:01.727Z,16.67
2022-08-22T05:18:32.138Z,11.93
2022-08-22T05:23:39.677Z,15.70
2022-08-22T05:28:52.561Z,14.85
2022-08-22T05:34:02.889Z,12.95
2022-08-22T05:39:28.312Z,14.70
2022-08-22T05:44:37.557Z,15.55
2022-08-22T05:50:17.617Z,14.27
2022-08-22T05:55:27.653Z,14.23
2022-08-22T06:00:35.645Z,13.77
2022-08-22T06:05:41.111Z,14.65
2022-08-22T06:10:50.790Z,15.73
2022-08-22T06:16:18.652Z,18.85
2022-08-22T06:21:38.673Z,18.40
2022-08-22T06:26:48.257Z,36.70
2022-08-22T06:31:50.742Z,37.42
2022-08-22T06:36:56.105Z,25.65
2022-08-22T06:42:02.955Z,19.63
2022-08-22T06:47:08.689Z,24.50
2022-08-22T06:52:19.299Z,23.05
2022-08-22T06:57:34.291Z,18.48
2022-08-22T07:02:57.059Z,18.77
2022-08-22T07:07:58.967Z,17.95
2022-08-22T07:13:00.865Z,16.90
2022-08-22T07:18:16.303Z,19.30
2022-08-22T07:23:38.672Z,17.38
2022-08-22T07:28:58.483Z,13.90
2022-08-22T07:34:24.659Z,20.13
2022-08-22T07:39:38.548Z,21.35
2022-08-22T07:44:49.135Z,23.65
2022-08-22T07:49:54.822Z,31.00
2022-08-22T07:55:13.070Z,12.10
2022-08-22T08:00:18.308Z,11.07
2022-08-22T08:05:24.033Z,17.58
2022-08-22T08:10:30.896Z,12.32
2022-08-22T08:15:35.761Z,20.95
2022-08-22T08:20:37.990Z,14.70
2022-08-22T08:26:08.288Z,16.88
2022-08-22T08:31:15.926Z,30.98
2022-08-22T08:36:28.336Z,38.15
2022-08-22T08:41:41.679Z,15.02
2022-08-22T08:47:24.267Z,18.80
2022-08-22T08:52:52.581Z,13.13
2022-08-22T08:58:10.271Z,19.63
2022-08-22T09:03:31.921Z,18.98
2022-08-22T09:08:59.718Z,15.55
2022-08-22T09:14:19.688Z,16.55
2022-08-22T09:19:58.221Z,18.73
2022-08-22T09:25:25.101Z,23.40
2022-08-22T09:30:45.146Z,15.27
2022-08-22T09:36:05.333Z,15.32
2022-08-22T09:41:13.424Z,13.77
2022-08-22T09:46:31.481Z,14.55
2022-08-22T09:51:45.044Z,8.02
2022-08-22T09:57:22.707Z,11.27
2022-08-22T10:02:43.670Z,11.07
2022-08-22T10:07:57.584Z,8.45
2022-08-22T10:13:15.420Z,7.05
2022-08-22T10:18:34.905Z,9.32
2022-08-22T10:23:45.925Z,16.85
2022-08-22T10:29:02.335Z,9.38
2022-08-22T10:34:16.386Z,7.70
2022-08-22T10:39:27.074Z,12.20
2022-08-22T10:44:34.613Z,9.75
2022-08-22T10:49:53.163Z,7.68
2022-08-22T10:55:24.630Z,8.23
2022-08-22T11:00:49.933Z,9.63
2022-08-22T11:05:58.096Z,12.00
2022-08-22T11:11:05.918Z,9.48
2022-08-22T11:16:13.269Z,9.43
2022-08-22T11:21:31.437Z,11.90
2022-08-22T11:26:49.854Z,11.48
2022-08-22T11:32:14.176Z,8.25
2022-08-22T11:37:43.337Z,12.63
2022-08-22T11:43:12.081Z,13.88
2022-08-22T11:48:26.788Z,8.45
2022-08-22T11:53:40.852Z,12.90
2022-08-22T11:59:07.423Z,14.40
2022-08-22T12:04:21.629Z,17.60
2022-08-22T12:09:47.783Z,11.85
2022-08-22T12:15:21.322Z,6.50
2022-08-22T12:20:41.350Z,11.85
2022-08-22T12:26:26.416Z,6.00
2022-08-22T12:31:54.419Z,7.03
2022-08-22T12:37:06.782Z,7.25
2022-08-22T12:42:08.454Z,7.32
2022-08-22T12:47:34.420Z,6.70
2022-08-22T12:52:48.138Z,11.57
2022-08-22T12:58:18.838Z,9.73
2022-08-22T13:03:40.345Z,12.10
2022-08-22T13:08:45.600Z,6.35
2022-08-22T13:14:01.642Z,11.70
2022-08-22T13:19:09.034Z,10.88
2022-08-22T13:24:38.894Z,10.02
2022-08-22T13:29:53.306Z,6.43
2022-08-22T13:34:57.334Z,7.15
2022-08-22T13:40:04.374Z,8.88
2022-08-22T13:45:14.622Z,11.10
2022-08-22T13:50:23.215Z,13.85
2022-08-22T13:55:38.325Z,6.55
2022-08-22T14:01:04.648Z,7.03
2022-08-22T14:06:38.160Z,7.45
2022-08-22T14:11:48.731Z,9.07
2022-08-22T14:16:55.720Z,7.90
2022-08-22T14:22:02.071Z,13.45
2022-08-22T14:27:11.578Z,14.07
2022-08-22T14:32:19.341Z,6.03
2022-08-22T14:37:32.990Z,9.88
2022-08-22T14:42:47.278Z,9.65
2022-08-22T14:48:13.940Z,5.60
2022-08-22T14:53:28.563Z,8.38
2022-08-22T14:59:05.896Z,7.97
2022-08-22T15:09:40.570Z,10.18
2022-08-22T15:14:52.487Z,7.70
2022-08-22T15:20:10.756Z,8.55
2022-08-22T15:25:18.360Z,5.47
2022-08-22T15:30:34.285Z,8.10
2022-08-22T15:35:38.993Z,11.07
2022-08-22T15:40:45.651Z,4.93
2022-08-22T15:45:52.529Z,7.30
2022-08-22T15:50:59.577Z,10.52
2022-08-22T15:56:10.849Z,6.80
2022-08-22T16:01:19.795Z,10.45
2022-08-22T16:06:46.794Z,7.10
2022-08-22T16:11:55.013Z,11.20
2022-08-22T16:17:01.918Z,12.35
2022-08-22T16:22:07.412Z,23.58
2022-08-22T16:27:20.669Z,9.77
2022-08-22T16:32:27.657Z,7.50
2022-08-22T16:37:49.887Z,7.28
2022-08-22T16:43:10.168Z,11.43
2022-08-22T16:48:36.952Z,8.27
2022-08-22T16:59:14.151Z,7.95
2022-08-22T17:04:32.099Z,6.15
2022-08-22T17:10:02.917Z,5.90
2022-08-22T17:15:13.583Z,4.65
2022-08-22T17:20:46.724Z,5.75
2022-08-22T17:26:25.490Z,5.63
2022-08-22T17:32:07.200Z,6.45
2022-08-22T17:37:21.545Z,4.63
2022-08-22T17:42:38.481Z,5.20
2022-08-22T17:47:46.362Z,6.93
2022-08-22T17:52:57.108Z,12.75
2022-08-22T17:58:10.660Z,8.38
2022-08-22T18:03:29.226Z,14.48
2022-08-22T18:09:13.272Z,7.10
2022-08-22T18:14:08.343Z,4.70
2022-08-22T18:19:10.127Z,6.88
2022-08-22T18:24:11.731Z,7.00
2022-08-22T18:29:17.618Z,6.22
2022-08-22T18:34:32.763Z,7.97
2022-08-22T18:39:56.434Z,6.55
2022-08-22T18:44:58.439Z,11.32
2022-08-22T18:50:23.769Z,7.68
2022-08-22T18:55:43.802Z,6.22
2022-08-22T19:01:18.249Z,12.20
2022-08-22T19:06:37.964Z,7.95
2022-08-22T19:11:57.287Z,11.23
2022-08-22T19:17:16.217Z,13.75
2022-08-22T19:22:29.158Z,14.25
2022-08-22T19:27:33.936Z,12.80
2022-08-22T19:32:44.768Z,8.13
2022-08-22T19:37:58.024Z,7.45
2022-08-22T19:43:01.648Z,7.72
2022-08-22T19:48:13.666Z,6.72
2022-08-22T19:53:35.617Z,7.45
2022-08-22T19:58:46.000Z,5.70
2022-08-22T20:03:50.379Z,8.85
2022-08-22T20:08:58.203Z,8.48
2022-08-22T20:14:30.749Z,13.73
2022-08-22T20:25:41.394Z,7.05
2022-08-22T20:30:50.029Z,7.07
2022-08-22T20:35:53.181Z,7.68
2022-08-22T20:41:11.079Z,10.90
2022-08-22T20:46:53.623Z,6.60
2022-08-22T20:52:02.833Z,5.90
2022-08-22T20:57:16.995Z,9.85
2022-08-22T21:02:34.552Z,7.82
2022-08-22T21:07:45.677Z,12.55
2022-08-22T21:13:04.304Z,13.25
2022-08-22T21:18:06.860Z,8.38
2022-08-22T21:23:13.646Z,10.27
2022-08-22T21:33:27.793Z,9.25
2022-08-22T21:38:29.859Z,9.40
2022-08-22T21:43:36.968Z,11.27
2022-08-22T21:48:56.592Z,8.95
2022-08-22T21:54:27.847Z,10.02
2022-08-22T21:59:51.133Z,12.32
2022-08-22T22:04:59.322Z,8.30
2022-08-22T22:10:01.044Z,6.82
2022-08-22T22:15:03.371Z,17.52
2022-08-22T22:20:06.759Z,17.83
2022-08-22T22:25:40.676Z,12.25
2022-08-22T22:30:30.492Z,9.35
2022-08-22T22:35:32.574Z,12.10
2022-08-22T22:40:35.169Z,9.50
2022-08-22T22:45:38.123Z,10.50
2022-08-22T22:50:43.257Z,11.77
2022-08-22T22:55:45.081Z,10.93
2022-08-22T23:00:46.958Z,15.15
2022-08-22T23:05:48.794Z,14.90
2022-08-22T23:10:50.469Z,7.22
2022-08-22T23:15:52.265Z,12.25
2022-08-22T23:20:53.931Z,8.40
2022-08-22T23:25:55.726Z,9.75
2022-08-22T23:31:09.355Z,7.30
2022-08-22T23:36:17.946Z,7.22
2022-08-22T23:41:21.625Z,15.57
2022-08-22T23:46:26.185Z,14.68
2022-08-22T23:51:28.458Z,10.35
2022-08-22T23:56:36.023Z,12.63
